sensor_id;sensor_type;location;lat;lon;timestamp;temperature;humidity
53310;DHT22;39197;53.200;5.792;2023-03-01T00:00:46;3.30;99.90
53310;DHT22;39197;53.200;5.792;2023-03-01T00:03:12;3.20;99.90
53310;DHT22;39197;53.200;5.792;2023-03-01T00:05:44;3.20;99.90
53310;DHT22;39197;53.200;5.792;2023-03-01T00:08:10;3.20;99.90
53310;DHT22;39197;53.200;5.792;2023-03-01T00:10:36;3.10;99.90
53310;DHT22;39197;53.200;5.792;2023-03-01T00:13:02;3.10;99.90
53310;DHT22;39197;53.200;5.792;2023-03-01T00:15:28;3.00;99.90
53310;DHT22;39197;53.200;5.792;2023-03-01T00:17:53;3.00;99.90
53310;DHT22;39197;53.200;5.792;2023-03-01T00:20:19;2.90;99.90
53310;DHT22;39197;53.200;5.792;2023-03-01T00:22:44;2.80;99.90
53310;DHT22;39197;53.200;5.792;2023-03-01T00:25:10;2.80;99.90
53310;DHT22;39197;53.200;5.792;2023-03-01T00:27:35;2.80;99.90
53310;DHT22;39197;53.200;5.792;2023-03-01T00:30:01;2.80;99.90
53310;DHT22;39197;53.200;5.792;2023-03-01T00:32:27;2.70;99.90
53310;DHT22;39197;53.200;5.792;2023-03-01T00:34:52;2.80;99.90
53310;DHT22;39197;53.200;5.792;2023-03-01T00:37:21;2.70;99.90
53310;DHT22;39197;53.200;5.792;2023-03-01T00:39:47;2.70;99.90
53310;DHT22;39197;53.200;5.792;2023-03-01T00:42:13;2.60;99.90
53310;DHT22;39197;53.200;5.792;2023-03-01T00:44:39;2.60;99.90
53310;DHT22;39197;53.200;5.792;2023-03-01T00:47:04;2.60;99.90
53310;DHT22;39197;53.200;5.792;2023-03-01T00:49:30;2.50;99.90
53310;DHT22;39197;53.200;5.792;2023-03-01T00:51:56;2.50;99.90
53310;DHT22;39197;53.200;5.792;2023-03-01T00:54:21;2.40;99.90
53310;DHT22;39197;53.200;5.792;2023-03-01T00:56:47;2.50;99.90
53310;DHT22;39197;53.200;5.792;2023-03-01T00:59:12;2.50;99.90
53310;DHT22;39197;53.200;5.792;2023-03-01T01:01:38;2.40;99.90
53310;DHT22;39197;53.200;5.792;2023-03-01T01:04:07;2.30;99.90
53310;DHT22;39197;53.200;5.792;2023-03-01T01:06:46;2.30;99.90
53310;DHT22;39197;53.200;5.792;2023-03-01T01:09:15;2.20;99.90
53310;DHT22;39197;53.200;5.792;2023-03-01T01:11:49;2.20;99.90
53310;DHT22;39197;53.200;5.792;2023-03-01T01:14:16;2.10;99.90
53310;DHT22;39197;53.200;5.792;2023-03-01T01:16:42;2.00;99.90
53310;DHT22;39197;53.200;5.792;2023-03-01T01:19:09;2.00;99.90
53310;DHT22;39197;53.200;5.792;2023-03-01T01:21:35;1.80;99.90
53310;DHT22;39197;53.200;5.792;2023-03-01T01:24:03;1.70;99.90
53310;DHT22;39197;53.200;5.792;2023-03-01T01:26:31;1.50;99.90
53310;DHT22;39197;53.200;5.792;2023-03-01T01:28:58;1.40;99.90
53310;DHT22;39197;53.200;5.792;2023-03-01T01:31:25;1.40;99.90
53310;DHT22;39197;53.200;5.792;2023-03-01T01:33:51;1.20;99.90
53310;DHT22;39197;53.200;5.792;2023-03-01T01:36:17;1.10;99.90
53310;DHT22;39197;53.200;5.792;2023-03-01T01:38:43;1.00;99.90
53310;DHT22;39197;53.200;5.792;2023-03-01T01:41:09;0.90;99.90
53310;DHT22;39197;53.200;5.792;2023-03-01T01:43:45;0.90;99.90
53310;DHT22;39197;53.200;5.792;2023-03-01T01:46:32;0.90;99.90
53310;DHT22;39197;53.200;5.792;2023-03-01T01:49:05;0.80;99.90
53310;DHT22;39197;53.200;5.792;2023-03-01T01:51:39;0.80;99.90
53310;DHT22;39197;53.200;5.792;2023-03-01T01:54:16;0.80;99.90
53310;DHT22;39197;53.200;5.792;2023-03-01T01:56:50;0.80;99.90
53310;DHT22;39197;53.200;5.792;2023-03-01T01:59:17;0.70;99.90
53310;DHT22;39197;53.200;5.792;2023-03-01T02:01:43;0.80;99.90
53310;DHT22;39197;53.200;5.792;2023-03-01T02:04:09;0.80;99.90
53310;DHT22;39197;53.200;5.792;2023-03-01T02:06:42;0.70;99.90
53310;DHT22;39197;53.200;5.792;2023-03-01T02:09:15;0.80;99.90
53310;DHT22;39197;53.200;5.792;2023-03-01T02:11:44;0.80;99.90
53310;DHT22;39197;53.200;5.792;2023-03-01T02:14:10;0.80;99.90
53310;DHT22;39197;53.200;5.792;2023-03-01T02:16:35;0.80;99.90
53310;DHT22;39197;53.200;5.792;2023-03-01T02:19:03;0.80;99.90
53310;DHT22;39197;53.200;5.792;2023-03-01T02:24:39;0.70;99.90
53310;DHT22;39197;53.200;5.792;2023-03-01T02:27:08;0.70;99.90
53310;DHT22;39197;53.200;5.792;2023-03-01T02:29:35;0.70;99.90
53310;DHT22;39197;53.200;5.792;2023-03-01T02:32:02;0.60;99.90
53310;DHT22;39197;53.200;5.792;2023-03-01T02:34:29;0.70;99.90
53310;DHT22;39197;53.200;5.792;2023-03-01T02:37:00;0.70;99.90
53310;DHT22;39197;53.200;5.792;2023-03-01T02:39:30;0.70;99.90
53310;DHT22;39197;53.200;5.792;2023-03-01T02:41:57;0.70;99.90
53310;DHT22;39197;53.200;5.792;2023-03-01T02:44:24;0.60;99.90
53310;DHT22;39197;53.200;5.792;2023-03-01T02:46:52;0.70;99.90
53310;DHT22;39197;53.200;5.792;2023-03-01T02:49:24;0.70;99.90
53310;DHT22;39197;53.200;5.792;2023-03-01T02:55:09;0.70;99.90
53310;DHT22;39197;53.200;5.792;2023-03-01T02:57:38;0.70;99.90
53310;DHT22;39197;53.200;5.792;2023-03-01T03:00:26;0.80;99.90
53310;DHT22;39197;53.200;5.792;2023-03-01T03:02:54;0.80;99.90
53310;DHT22;39197;53.200;5.792;2023-03-01T03:05:22;0.90;99.90
53310;DHT22;39197;53.200;5.792;2023-03-01T03:07:49;0.90;99.90
53310;DHT22;39197;53.200;5.792;2023-03-01T03:10:18;0.90;99.90
53310;DHT22;39197;53.200;5.792;2023-03-01T03:12:52;1.00;99.90
53310;DHT22;39197;53.200;5.792;2023-03-01T03:15:18;0.90;99.90
53310;DHT22;39197;53.200;5.792;2023-03-01T03:17:44;0.90;99.90
53310;DHT22;39197;53.200;5.792;2023-03-01T03:20:11;0.90;99.90
53310;DHT22;39197;53.200;5.792;2023-03-01T03:22:41;0.80;99.90
53310;DHT22;39197;53.200;5.792;2023-03-01T03:25:08;0.60;99.90
53310;DHT22;39197;53.200;5.792;2023-03-01T03:27:37;0.50;99.90
53310;DHT22;39197;53.200;5.792;2023-03-01T03:30:05;0.50;99.90
53310;DHT22;39197;53.200;5.792;2023-03-01T03:32:38;0.50;99.90
53310;DHT22;39197;53.200;5.792;2023-03-01T03:35:05;0.50;99.90
53310;DHT22;39197;53.200;5.792;2023-03-01T03:37:40;0.40;99.90
53310;DHT22;39197;53.200;5.792;2023-03-01T03:40:26;0.40;99.90
53310;DHT22;39197;53.200;5.792;2023-03-01T03:42:51;0.30;99.90
53310;DHT22;39197;53.200;5.792;2023-03-01T03:45:17;0.30;99.90
53310;DHT22;39197;53.200;5.792;2023-03-01T03:47:43;0.20;99.90
53310;DHT22;39197;53.200;5.792;2023-03-01T03:50:11;0.20;99.90
53310;DHT22;39197;53.200;5.792;2023-03-01T03:52:36;0.30;99.90
53310;DHT22;39197;53.200;5.792;2023-03-01T03:55:03;0.20;99.90
53310;DHT22;39197;53.200;5.792;2023-03-01T03:57:29;0.10;99.90
53310;DHT22;39197;53.200;5.792;2023-03-01T03:59:54;0.20;99.90
53310;DHT22;39197;53.200;5.792;2023-03-01T04:02:20;0.10;99.90
53310;DHT22;39197;53.200;5.792;2023-03-01T04:04:48;0.10;99.90
53310;DHT22;39197;53.200;5.792;2023-03-01T04:07:16;0.00;99.90
53310;DHT22;39197;53.200;5.792;2023-03-01T04:09:42;0.00;99.90
53310;DHT22;39197;53.200;5.792;2023-03-01T04:12:09;0.00;99.90
53310;DHT22;39197;53.200;5.792;2023-03-01T04:14:35;0.00;99.90
53310;DHT22;39197;53.200;5.792;2023-03-01T04:17:00;0.00;99.90
53310;DHT22;39197;53.200;5.792;2023-03-01T04:19:26;0.00;99.90
53310;DHT22;39197;53.200;5.792;2023-03-01T04:21:52;0.00;99.90
53310;DHT22;39197;53.200;5.792;2023-03-01T04:24:18;0.20;99.90
53310;DHT22;39197;53.200;5.792;2023-03-01T04:26:44;0.10;99.90
53310;DHT22;39197;53.200;5.792;2023-03-01T04:29:09;0.10;99.90
53310;DHT22;39197;53.200;5.792;2023-03-01T04:31:36;0.20;99.90
53310;DHT22;39197;53.200;5.792;2023-03-01T04:34:01;0.10;99.90
53310;DHT22;39197;53.200;5.792;2023-03-01T04:36:28;0.20;99.90
53310;DHT22;39197;53.200;5.792;2023-03-01T04:38:55;0.20;99.90
53310;DHT22;39197;53.200;5.792;2023-03-01T04:41:23;0.20;99.90
53310;DHT22;39197;53.200;5.792;2023-03-01T04:43:48;0.20;99.90
53310;DHT22;39197;53.200;5.792;2023-03-01T04:46:16;0.20;99.90
53310;DHT22;39197;53.200;5.792;2023-03-01T04:48:43;0.30;99.90
53310;DHT22;39197;53.200;5.792;2023-03-01T04:51:10;0.40;99.90
53310;DHT22;39197;53.200;5.792;2023-03-01T04:53:39;0.40;99.90
53310;DHT22;39197;53.200;5.792;2023-03-01T04:56:05;0.40;99.90
53310;DHT22;39197;53.200;5.792;2023-03-01T04:58:31;0.50;99.90
53310;DHT22;39197;53.200;5.792;2023-03-01T05:00:57;0.50;99.90
53310;DHT22;39197;53.200;5.792;2023-03-01T05:03:22;0.50;99.90
53310;DHT22;39197;53.200;5.792;2023-03-01T05:05:50;0.50;99.90
53310;DHT22;39197;53.200;5.792;2023-03-01T05:08:16;0.50;99.90
53310;DHT22;39197;53.200;5.792;2023-03-01T05:10:49;0.50;99.90
53310;DHT22;39197;53.200;5.792;2023-03-01T05:13:15;0.50;99.90
53310;DHT22;39197;53.200;5.792;2023-03-01T05:15:47;0.50;99.90
53310;DHT22;39197;53.200;5.792;2023-03-01T05:18:13;0.50;99.90
53310;DHT22;39197;53.200;5.792;2023-03-01T05:20:39;0.50;99.90
53310;DHT22;39197;53.200;5.792;2023-03-01T05:23:04;0.50;99.90
53310;DHT22;39197;53.200;5.792;2023-03-01T05:25:32;0.40;99.90
53310;DHT22;39197;53.200;5.792;2023-03-01T05:28:00;0.40;99.90
53310;DHT22;39197;53.200;5.792;2023-03-01T05:30:30;0.30;99.90
53310;DHT22;39197;53.200;5.792;2023-03-01T05:32:56;0.30;99.90
53310;DHT22;39197;53.200;5.792;2023-03-01T05:35:23;0.30;99.90
53310;DHT22;39197;53.200;5.792;2023-03-01T05:37:49;0.30;99.90
53310;DHT22;39197;53.200;5.792;2023-03-01T05:40:20;0.30;99.90
53310;DHT22;39197;53.200;5.792;2023-03-01T05:42:54;0.30;99.90
53310;DHT22;39197;53.200;5.792;2023-03-01T05:45:22;0.30;99.90
53310;DHT22;39197;53.200;5.792;2023-03-01T05:47:49;0.30;99.90
53310;DHT22;39197;53.200;5.792;2023-03-01T05:50:19;0.30;99.90
53310;DHT22;39197;53.200;5.792;2023-03-01T05:55:12;0.20;99.90
53310;DHT22;39197;53.200;5.792;2023-03-01T05:57:38;0.30;99.90
53310;DHT22;39197;53.200;5.792;2023-03-01T06:00:04;0.20;99.90
53310;DHT22;39197;53.200;5.792;2023-03-01T06:02:31;0.10;99.90
53310;DHT22;39197;53.200;5.792;2023-03-01T06:04:57;0.20;99.90
53310;DHT22;39197;53.200;5.792;2023-03-01T06:07:22;0.10;99.90
53310;DHT22;39197;53.200;5.792;2023-03-01T06:09:48;0.10;99.90
53310;DHT22;39197;53.200;5.792;2023-03-01T06:12:14;-0.10;99.90
53310;DHT22;39197;53.200;5.792;2023-03-01T06:14:39;-0.10;99.90
53310;DHT22;39197;53.200;5.792;2023-03-01T06:17:05;-0.20;99.90
53310;DHT22;39197;53.200;5.792;2023-03-01T06:19:30;-0.30;99.90
53310;DHT22;39197;53.200;5.792;2023-03-01T06:21:56;-0.30;99.90
53310;DHT22;39197;53.200;5.792;2023-03-01T06:24:21;-0.40;99.90
53310;DHT22;39197;53.200;5.792;2023-03-01T06:26:47;-0.40;99.90
53310;DHT22;39197;53.200;5.792;2023-03-01T06:29:12;-0.50;99.90
53310;DHT22;39197;53.200;5.792;2023-03-01T06:31:39;-0.50;99.90
53310;DHT22;39197;53.200;5.792;2023-03-01T06:34:05;-0.70;99.90
53310;DHT22;39197;53.200;5.792;2023-03-01T06:36:31;-0.70;99.90
53310;DHT22;39197;53.200;5.792;2023-03-01T06:38:56;-0.80;99.90
53310;DHT22;39197;53.200;5.792;2023-03-01T06:41:22;-0.80;99.90
53310;DHT22;39197;53.200;5.792;2023-03-01T06:43:47;-0.90;99.90
53310;DHT22;39197;53.200;5.792;2023-03-01T06:46:13;-1.00;99.90
53310;DHT22;39197;53.200;5.792;2023-03-01T06:48:39;-1.00;99.90
53310;DHT22;39197;53.200;5.792;2023-03-01T06:51:04;-1.00;99.90
53310;DHT22;39197;53.200;5.792;2023-03-01T06:53:30;-1.00;99.90
53310;DHT22;39197;53.200;5.792;2023-03-01T06:55:56;-1.00;99.90
53310;DHT22;39197;53.200;5.792;2023-03-01T06:58:22;-1.00;99.90
53310;DHT22;39197;53.200;5.792;2023-03-01T07:00:48;-1.10;99.90
53310;DHT22;39197;53.200;5.792;2023-03-01T07:03:13;-1.00;99.90
53310;DHT22;39197;53.200;5.792;2023-03-01T07:05:39;-1.00;99.90
53310;DHT22;39197;53.200;5.792;2023-03-01T07:08:05;-1.00;99.90
53310;DHT22;39197;53.200;5.792;2023-03-01T07:10:30;-1.00;99.90
53310;DHT22;39197;53.200;5.792;2023-03-01T07:12:57;-0.90;99.90
53310;DHT22;39197;53.200;5.792;2023-03-01T07:15:23;-0.90;99.90
53310;DHT22;39197;53.200;5.792;2023-03-01T07:17:48;-0.80;99.90
53310;DHT22;39197;53.200;5.792;2023-03-01T07:20:16;-1.00;99.90
53310;DHT22;39197;53.200;5.792;2023-03-01T07:22:42;-0.60;99.90
53310;DHT22;39197;53.200;5.792;2023-03-01T07:25:09;-0.50;99.90
53310;DHT22;39197;53.200;5.792;2023-03-01T07:27:35;-0.50;99.90
53310;DHT22;39197;53.200;5.792;2023-03-01T07:30:01;-0.40;99.90
53310;DHT22;39197;53.200;5.792;2023-03-01T07:32:27;-0.30;99.90
53310;DHT22;39197;53.200;5.792;2023-03-01T07:34:52;-0.20;99.90
53310;DHT22;39197;53.200;5.792;2023-03-01T07:37:18;0.00;99.90
53310;DHT22;39197;53.200;5.792;2023-03-01T07:39:43;0.00;99.90
53310;DHT22;39197;53.200;5.792;2023-03-01T07:42:09;0.20;99.90
53310;DHT22;39197;53.200;5.792;2023-03-01T07:44:34;0.70;99.90
53310;DHT22;39197;53.200;5.792;2023-03-01T07:47:00;1.40;99.90
53310;DHT22;39197;53.200;5.792;2023-03-01T07:49:26;2.10;99.90
53310;DHT22;39197;53.200;5.792;2023-03-01T07:51:52;2.70;99.90
53310;DHT22;39197;53.200;5.792;2023-03-01T07:54:18;3.30;99.90
53310;DHT22;39197;53.200;5.792;2023-03-01T07:56:44;3.80;99.90
53310;DHT22;39197;53.200;5.792;2023-03-01T07:59:09;3.60;99.90
53310;DHT22;39197;53.200;5.792;2023-03-01T08:01:35;3.80;99.90
53310;DHT22;39197;53.200;5.792;2023-03-01T08:04:00;4.00;99.90
53310;DHT22;39197;53.200;5.792;2023-03-01T08:06:27;3.60;99.90
53310;DHT22;39197;53.200;5.792;2023-03-01T08:08:53;3.70;99.90
53310;DHT22;39197;53.200;5.792;2023-03-01T08:11:21;3.50;99.90
53310;DHT22;39197;53.200;5.792;2023-03-01T08:13:49;3.60;99.90
53310;DHT22;39197;53.200;5.792;2023-03-01T08:16:15;3.70;99.90
53310;DHT22;39197;53.200;5.792;2023-03-01T08:18:41;4.10;99.90
53310;DHT22;39197;53.200;5.792;2023-03-01T08:21:13;4.20;99.90
53310;DHT22;39197;53.200;5.792;2023-03-01T08:23:39;4.30;99.90
53310;DHT22;39197;53.200;5.792;2023-03-01T08:26:14;4.60;99.90
53310;DHT22;39197;53.200;5.792;2023-03-01T08:28:41;4.90;99.90
53310;DHT22;39197;53.200;5.792;2023-03-01T08:33:43;5.50;99.90
53310;DHT22;39197;53.200;5.792;2023-03-01T08:36:08;6.00;99.90
53310;DHT22;39197;53.200;5.792;2023-03-01T08:38:35;6.80;99.90
53310;DHT22;39197;53.200;5.792;2023-03-01T08:41:02;7.00;99.90
53310;DHT22;39197;53.200;5.792;2023-03-01T08:43:28;7.80;99.90
53310;DHT22;39197;53.200;5.792;2023-03-01T08:45:53;8.30;99.90
53310;DHT22;39197;53.200;5.792;2023-03-01T08:48:19;8.70;99.90
53310;DHT22;39197;53.200;5.792;2023-03-01T08:50:44;9.30;99.90
53310;DHT22;39197;53.200;5.792;2023-03-01T08:53:10;9.90;99.90
53310;DHT22;39197;53.200;5.792;2023-03-01T08:55:36;10.10;99.90
53310;DHT22;39197;53.200;5.792;2023-03-01T08:58:02;10.60;99.90
53310;DHT22;39197;53.200;5.792;2023-03-01T09:00:27;10.80;99.90
53310;DHT22;39197;53.200;5.792;2023-03-01T09:02:53;11.60;99.90
53310;DHT22;39197;53.200;5.792;2023-03-01T09:05:18;12.00;99.90
53310;DHT22;39197;53.200;5.792;2023-03-01T09:07:44;12.30;99.90
53310;DHT22;39197;53.200;5.792;2023-03-01T09:10:10;13.60;99.90
53310;DHT22;39197;53.200;5.792;2023-03-01T09:12:37;13.90;99.90
53310;DHT22;39197;53.200;5.792;2023-03-01T09:15:03;14.40;99.90
53310;DHT22;39197;53.200;5.792;2023-03-01T09:17:28;14.90;99.10
53310;DHT22;39197;53.200;5.792;2023-03-01T09:19:54;15.30;96.90
53310;DHT22;39197;53.200;5.792;2023-03-01T09:22:20;15.70;95.00
53310;DHT22;39197;53.200;5.792;2023-03-01T09:24:45;14.10;93.60
53310;DHT22;39197;53.200;5.792;2023-03-01T09:27:11;14.50;92.90
53310;DHT22;39197;53.200;5.792;2023-03-01T09:29:38;15.30;92.40
53310;DHT22;39197;53.200;5.792;2023-03-01T09:32:04;15.00;91.70
53310;DHT22;39197;53.200;5.792;2023-03-01T09:34:30;15.10;91.70
53310;DHT22;39197;53.200;5.792;2023-03-01T09:36:57;15.70;91.40
53310;DHT22;39197;53.200;5.792;2023-03-01T09:39:23;16.40;91.30
53310;DHT22;39197;53.200;5.792;2023-03-01T09:42:01;15.60;90.60
53310;DHT22;39197;53.200;5.792;2023-03-01T09:44:36;15.90;88.90
53310;DHT22;39197;53.200;5.792;2023-03-01T09:47:04;15.30;91.00
53310;DHT22;39197;53.200;5.792;2023-03-01T09:49:33;15.70;90.60
53310;DHT22;39197;53.200;5.792;2023-03-01T09:52:26;16.10;90.60
53310;DHT22;39197;53.200;5.792;2023-03-01T09:54:55;16.20;88.50
53310;DHT22;39197;53.200;5.792;2023-03-01T10:00:42;15.10;90.40
53310;DHT22;39197;53.200;5.792;2023-03-01T10:03:22;14.20;92.00
53310;DHT22;39197;53.200;5.792;2023-03-01T10:06:04;13.30;92.50
53310;DHT22;39197;53.200;5.792;2023-03-01T10:08:46;14.00;92.50
53310;DHT22;39197;53.200;5.792;2023-03-01T10:11:28;13.70;94.00
53310;DHT22;39197;53.200;5.792;2023-03-01T10:19:40;13.10;93.60
53310;DHT22;39197;53.200;5.792;2023-03-01T10:22:29;14.10;93.40
53310;DHT22;39197;53.200;5.792;2023-03-01T10:24:58;14.70;92.30
53310;DHT22;39197;53.200;5.792;2023-03-01T10:27:29;15.10;92.90
53310;DHT22;39197;53.200;5.792;2023-03-01T10:30:17;14.10;93.50
53310;DHT22;39197;53.200;5.792;2023-03-01T10:32:45;14.90;92.80
53310;DHT22;39197;53.200;5.792;2023-03-01T10:35:33;13.40;93.30
53310;DHT22;39197;53.200;5.792;2023-03-01T10:38:12;14.10;93.00
53310;DHT22;39197;53.200;5.792;2023-03-01T10:41:25;13.80;93.40
53310;DHT22;39197;53.200;5.792;2023-03-01T10:43:49;14.80;93.30
53310;DHT22;39197;53.200;5.792;2023-03-01T10:46:34;15.20;92.70
53310;DHT22;39197;53.200;5.792;2023-03-01T10:49:23;15.60;92.20
53310;DHT22;39197;53.200;5.792;2023-03-01T10:51:53;16.90;91.20
53310;DHT22;39197;53.200;5.792;2023-03-01T10:56:52;16.80;90.80
53310;DHT22;39197;53.200;5.792;2023-03-01T10:59:26;16.10;89.70
53310;DHT22;39197;53.200;5.792;2023-03-01T11:02:16;15.20;91.10
53310;DHT22;39197;53.200;5.792;2023-03-01T11:04:57;15.80;90.60
53310;DHT22;39197;53.200;5.792;2023-03-01T11:07:23;15.70;90.10
53310;DHT22;39197;53.200;5.792;2023-03-01T11:09:49;14.30;92.50
53310;DHT22;39197;53.200;5.792;2023-03-01T11:12:16;14.00;92.70
53310;DHT22;39197;53.200;5.792;2023-03-01T11:14:55;14.60;93.40
53310;DHT22;39197;53.200;5.792;2023-03-01T11:22:32;16.40;90.80
53310;DHT22;39197;53.200;5.792;2023-03-01T11:25:00;15.60;92.20
53310;DHT22;39197;53.200;5.792;2023-03-01T11:27:30;16.20;91.90
53310;DHT22;39197;53.200;5.792;2023-03-01T11:30:20;15.50;91.80
53310;DHT22;39197;53.200;5.792;2023-03-01T11:35:55;16.30;90.00
53310;DHT22;39197;53.200;5.792;2023-03-01T11:38:25;17.10;88.80
53310;DHT22;39197;53.200;5.792;2023-03-01T11:41:01;15.80;90.30
53310;DHT22;39197;53.200;5.792;2023-03-01T11:43:38;16.80;90.20
53310;DHT22;39197;53.200;5.792;2023-03-01T11:49:25;15.50;88.60
53310;DHT22;39197;53.200;5.792;2023-03-01T12:00:10;14.40;88.80
53310;DHT22;39197;53.200;5.792;2023-03-01T12:02:49;14.60;89.00
53310;DHT22;39197;53.200;5.792;2023-03-01T12:11:20;13.80;90.00
53310;DHT22;39197;53.200;5.792;2023-03-01T12:42:22;14.40;90.30
53310;DHT22;39197;53.200;5.792;2023-03-01T12:50:21;14.30;90.90
53310;DHT22;39197;53.200;5.792;2023-03-01T12:52:55;14.70;90.50
53310;DHT22;39197;53.200;5.792;2023-03-01T12:55:41;15.50;90.10
53310;DHT22;39197;53.200;5.792;2023-03-01T13:09:30;14.50;90.70
53310;DHT22;39197;53.200;5.792;2023-03-01T13:11:59;14.30;90.70
53310;DHT22;39197;53.200;5.792;2023-03-01T13:16:54;15.40;87.70
53310;DHT22;39197;53.200;5.792;2023-03-01T13:19:25;14.90;89.00
53310;DHT22;39197;53.200;5.792;2023-03-01T13:21:53;14.60;90.00
53310;DHT22;39197;53.200;5.792;2023-03-01T13:24:33;15.40;89.10
53310;DHT22;39197;53.200;5.792;2023-03-01T13:29:52;15.20;90.40
53310;DHT22;39197;53.200;5.792;2023-03-01T13:37:41;14.90;90.60
53310;DHT22;39197;53.200;5.792;2023-03-01T13:42:45;15.40;90.10
53310;DHT22;39197;53.200;5.792;2023-03-01T13:45:25;14.60;90.40
53310;DHT22;39197;53.200;5.792;2023-03-01T13:48:00;14.20;90.80
53310;DHT22;39197;53.200;5.792;2023-03-01T13:50:29;14.10;91.50
53310;DHT22;39197;53.200;5.792;2023-03-01T13:53:00;14.50;91.20
53310;DHT22;39197;53.200;5.792;2023-03-01T13:55:43;14.70;90.40
53310;DHT22;39197;53.200;5.792;2023-03-01T13:58:25;14.80;90.60
53310;DHT22;39197;53.200;5.792;2023-03-01T14:01:25;14.70;90.90
53310;DHT22;39197;53.200;5.792;2023-03-01T14:03:52;15.70;90.50
53310;DHT22;39197;53.200;5.792;2023-03-01T14:06:24;15.70;90.10
53310;DHT22;39197;53.200;5.792;2023-03-01T14:08:52;16.40;88.80
53310;DHT22;39197;53.200;5.792;2023-03-01T14:14:51;16.00;87.40
53310;DHT22;39197;53.200;5.792;2023-03-01T14:20:19;16.40;88.40
53310;DHT22;39197;53.200;5.792;2023-03-01T14:22:46;16.40;86.50
53310;DHT22;39197;53.200;5.792;2023-03-01T14:25:20;15.80;87.70
53310;DHT22;39197;53.200;5.792;2023-03-01T14:28:02;16.60;86.70
53310;DHT22;39197;53.200;5.792;2023-03-01T14:32:59;16.40;85.30
53310;DHT22;39197;53.200;5.792;2023-03-01T14:35:30;16.90;86.00
53310;DHT22;39197;53.200;5.792;2023-03-01T14:37:56;15.70;86.30
53310;DHT22;39197;53.200;5.792;2023-03-01T14:42:51;16.50;87.00
53310;DHT22;39197;53.200;5.792;2023-03-01T14:45:18;16.40;86.90
53310;DHT22;39197;53.200;5.792;2023-03-01T14:47:44;16.20;85.80
53310;DHT22;39197;53.200;5.792;2023-03-01T14:50:26;15.80;86.50
53310;DHT22;39197;53.200;5.792;2023-03-01T14:52:59;16.70;85.00
53310;DHT22;39197;53.200;5.792;2023-03-01T14:55:37;16.90;85.00
53310;DHT22;39197;53.200;5.792;2023-03-01T14:58:11;17.30;84.00
53310;DHT22;39197;53.200;5.792;2023-03-01T15:00:37;15.90;85.50
53310;DHT22;39197;53.200;5.792;2023-03-01T15:03:11;16.00;86.50
53310;DHT22;39197;53.200;5.792;2023-03-01T15:05:39;16.70;85.30
53310;DHT22;39197;53.200;5.792;2023-03-01T15:08:05;15.50;87.10
53310;DHT22;39197;53.200;5.792;2023-03-01T15:10:36;15.80;87.80
53310;DHT22;39197;53.200;5.792;2023-03-01T15:15:44;15.20;87.70
53310;DHT22;39197;53.200;5.792;2023-03-01T15:18:32;15.60;87.20
53310;DHT22;39197;53.200;5.792;2023-03-01T15:21:17;15.50;87.30
53310;DHT22;39197;53.200;5.792;2023-03-01T15:23:54;15.00;87.10
53310;DHT22;39197;53.200;5.792;2023-03-01T15:26:41;15.50;87.90
53310;DHT22;39197;53.200;5.792;2023-03-01T15:29:15;15.70;87.80
53310;DHT22;39197;53.200;5.792;2023-03-01T15:31:42;15.10;88.10
53310;DHT22;39197;53.200;5.792;2023-03-01T15:34:34;15.30;88.30
53310;DHT22;39197;53.200;5.792;2023-03-01T15:37:04;14.90;87.40
53310;DHT22;39197;53.200;5.792;2023-03-01T15:39:53;14.70;88.80
53310;DHT22;39197;53.200;5.792;2023-03-01T15:47:50;13.70;90.70
53310;DHT22;39197;53.200;5.792;2023-03-01T15:50:21;13.30;91.00
53310;DHT22;39197;53.200;5.792;2023-03-01T15:52:48;13.40;91.40
53310;DHT22;39197;53.200;5.792;2023-03-01T15:55:20;12.90;91.80
53310;DHT22;39197;53.200;5.792;2023-03-01T15:57:47;13.30;92.00
53310;DHT22;39197;53.200;5.792;2023-03-01T16:00:14;12.80;92.60
53310;DHT22;39197;53.200;5.792;2023-03-01T16:02:42;13.10;92.40
53310;DHT22;39197;53.200;5.792;2023-03-01T16:05:32;12.50;93.30
53310;DHT22;39197;53.200;5.792;2023-03-01T16:07:58;12.00;94.80
53310;DHT22;39197;53.200;5.792;2023-03-01T16:10:24;12.00;95.30
53310;DHT22;39197;53.200;5.792;2023-03-01T16:12:51;12.10;95.60
53310;DHT22;39197;53.200;5.792;2023-03-01T16:15:37;12.30;95.60
53310;DHT22;39197;53.200;5.792;2023-03-01T16:18:05;12.30;96.30
53310;DHT22;39197;53.200;5.792;2023-03-01T16:20:32;12.50;96.30
53310;DHT22;39197;53.200;5.792;2023-03-01T16:23:02;11.70;99.10
53310;DHT22;39197;53.200;5.792;2023-03-01T16:25:29;11.10;99.90
53310;DHT22;39197;53.200;5.792;2023-03-01T16:27:55;11.10;99.90
53310;DHT22;39197;53.200;5.792;2023-03-01T16:30:22;11.10;99.90
53310;DHT22;39197;53.200;5.792;2023-03-01T16:32:49;10.30;99.90
53310;DHT22;39197;53.200;5.792;2023-03-01T16:35:17;10.00;99.90
53310;DHT22;39197;53.200;5.792;2023-03-01T16:37:42;10.10;99.90
53310;DHT22;39197;53.200;5.792;2023-03-01T16:40:24;9.70;99.90
53310;DHT22;39197;53.200;5.792;2023-03-01T16:42:51;9.60;99.90
53310;DHT22;39197;53.200;5.792;2023-03-01T16:45:17;9.50;99.90
53310;DHT22;39197;53.200;5.792;2023-03-01T16:47:43;9.40;99.90
53310;DHT22;39197;53.200;5.792;2023-03-01T16:50:09;9.10;99.90
53310;DHT22;39197;53.200;5.792;2023-03-01T16:52:35;8.80;99.90
53310;DHT22;39197;53.200;5.792;2023-03-01T16:55:07;8.50;99.90
53310;DHT22;39197;53.200;5.792;2023-03-01T16:57:35;8.60;99.90
53310;DHT22;39197;53.200;5.792;2023-03-01T17:00:02;8.70;99.90
53310;DHT22;39197;53.200;5.792;2023-03-01T17:02:30;8.40;99.90
53310;DHT22;39197;53.200;5.792;2023-03-01T17:04:56;8.40;99.90
53310;DHT22;39197;53.200;5.792;2023-03-01T17:07:22;8.10;99.90
53310;DHT22;39197;53.200;5.792;2023-03-01T17:09:48;8.00;99.90
53310;DHT22;39197;53.200;5.792;2023-03-01T17:12:14;7.60;99.90
53310;DHT22;39197;53.200;5.792;2023-03-01T17:14:41;7.50;99.90
53310;DHT22;39197;53.200;5.792;2023-03-01T17:17:10;7.40;99.90
53310;DHT22;39197;53.200;5.792;2023-03-01T17:19:37;7.30;99.90
53310;DHT22;39197;53.200;5.792;2023-03-01T17:22:09;7.20;99.90
53310;DHT22;39197;53.200;5.792;2023-03-01T17:24:37;7.10;99.90
53310;DHT22;39197;53.200;5.792;2023-03-01T17:27:04;7.10;99.90
53310;DHT22;39197;53.200;5.792;2023-03-01T17:29:30;7.00;99.90
53310;DHT22;39197;53.200;5.792;2023-03-01T17:31:56;7.00;99.90
53310;DHT22;39197;53.200;5.792;2023-03-01T17:34:22;6.80;99.90
53310;DHT22;39197;53.200;5.792;2023-03-01T17:36:48;6.80;99.90
53310;DHT22;39197;53.200;5.792;2023-03-01T17:39:16;6.70;99.90
53310;DHT22;39197;53.200;5.792;2023-03-01T17:41:44;6.70;99.90
53310;DHT22;39197;53.200;5.792;2023-03-01T17:44:10;6.50;99.90
53310;DHT22;39197;53.200;5.792;2023-03-01T17:46:36;6.40;99.90
53310;DHT22;39197;53.200;5.792;2023-03-01T17:49:02;6.40;99.90
53310;DHT22;39197;53.200;5.792;2023-03-01T17:51:28;6.30;99.90
53310;DHT22;39197;53.200;5.792;2023-03-01T17:53:53;6.20;99.90
53310;DHT22;39197;53.200;5.792;2023-03-01T17:56:19;6.10;99.90
53310;DHT22;39197;53.200;5.792;2023-03-01T17:58:45;6.10;99.90